Time;durP1;ratioP1;P1;durP2;ratioP2;P2;SDS_P1;SDS_P2;PMS_P1;PMS_P2;Temp;Humidity;BMP_temperature;BMP_pressure;BME280_temperature;BME280_humidity;BME280_pressure;Samples;Min_cycle;Max_cycle;Signal;HPM_P1;HPM_P2
2021/12/11 00:00:12;;;;;;;54.58;24.17;;;-3.80;99.90;;;;;;4955730;28;20046;-87
2021/12/11 00:02:39;;;;;;;51.03;22.08;;;-3.90;99.90;;;;;;4955830;28;20109;-87
2021/12/11 00:05:05;;;;;;;47.45;20.85;;;-4.00;99.90;;;;;;4957352;28;20113;-88
2021/12/11 00:07:31;;;;;;;46.78;23.48;;;-3.90;99.90;;;;;;4958301;28;20064;-87
2021/12/11 00:10:27;;;;;;;50.50;21.92;;;-3.30;99.90;;;;;;4956873;28;20039;-87
2021/12/11 00:12:59;;;;;;;57.03;24.27;;;-3.90;99.90;;;;;;4932262;28;20057;-87
2021/12/11 00:15:30;;;;;;;52.00;22.77;;;-3.60;99.90;;;;;;4955901;28;20050;-87
2021/12/11 00:18:03;;;;;;;49.58;22.17;;;-4.40;99.90;;;;;;4956271;28;20105;-87
2021/12/11 00:20:34;;;;;;;47.60;23.02;;;-3.70;99.90;;;;;;4951313;28;20059;-87
2021/12/11 00:23:00;;;;;;;60.75;24.95;;;-3.90;99.90;;;;;;4919917;29;20138;-88
2021/12/11 00:25:28;;;;;;;53.50;22.95;;;-3.80;99.90;;;;;;4919338;29;20062;-87
2021/12/11 00:28:05;;;;;;;45.33;20.92;;;-3.90;99.90;;;;;;4920742;28;20062;-88
2021/12/11 00:30:35;;;;;;;56.28;25.05;;;-3.80;99.90;;;;;;4934883;29;20133;-88
2021/12/11 00:33:13;;;;;;;45.28;21.30;;;-3.50;99.90;;;;;;4920732;29;20246;-87
2021/12/11 00:35:40;;;;;;;47.72;22.17;;;-3.80;99.90;;;;;;4920175;29;20173;-88
2021/12/11 00:38:15;;;;;;;48.40;20.27;;;-3.80;99.90;;;;;;4918933;29;20055;-87
2021/12/11 00:40:43;;;;;;;43.80;22.02;;;-3.80;99.90;;;;;;4934302;29;20055;-87
2021/12/11 00:43:15;;;;;;;48.65;20.10;;;-3.30;99.90;;;;;;4919365;29;20083;-87
2021/12/11 00:45:43;;;;;;;38.42;18.92;;;-4.00;99.90;;;;;;4920099;29;20055;-87
2021/12/11 00:48:12;;;;;;;49.92;22.67;;;-3.20;99.90;;;;;;4919708;29;20051;-87
2021/12/11 00:50:46;;;;;;;46.15;20.63;;;-3.90;99.90;;;;;;4918603;29;20078;-87
2021/12/11 00:53:22;;;;;;;44.65;18.50;;;-3.70;99.90;;;;;;4919621;29;20556;-87
2021/12/11 00:55:59;;;;;;;45.75;20.65;;;-4.00;99.90;;;;;;4920861;28;20518;-87
2021/12/11 00:58:29;;;;;;;42.30;18.90;;;-4.00;99.90;;;;;;4920534;29;20066;-87
2021/12/11 01:01:00;;;;;;;42.65;19.27;;;-3.60;99.90;;;;;;4920927;29;20055;-88
2021/12/11 01:03:29;;;;;;;40.97;21.23;;;-4.00;99.90;;;;;;4920268;29;20071;-87
2021/12/11 01:05:58;;;;;;;38.70;18.17;;;-3.50;99.90;;;;;;4920851;29;20059;-87
2021/12/11 01:08:35;;;;;;;48.55;20.23;;;-4.10;99.90;;;;;;4920339;29;20082;-88
2021/12/11 01:11:18;;;;;;;41.85;17.55;;;-3.20;99.90;;;;;;4919579;29;20877;-88
2021/12/11 01:14:08;;;;;;;41.72;18.13;;;-4.00;99.90;;;;;;4920317;29;20051;-87
2021/12/11 01:16:36;;;;;;;39.35;19.38;;;-4.10;99.90;;;;;;4920082;28;20066;-88
2021/12/11 01:19:04;;;;;;;41.92;18.60;;;-3.80;99.90;;;;;;4920858;29;20105;-87
2021/12/11 01:24:28;;;;;;;43.55;19.42;;;-4.10;99.90;;;;;;4935847;29;20094;-87
2021/12/11 01:26:55;;;;;;;41.97;19.13;;;-4.10;99.90;;;;;;4920267;28;20062;-87
2021/12/11 01:29:23;;;;;;;46.25;19.70;;;-3.50;99.90;;;;;;4934681;29;20083;-87
2021/12/11 01:31:50;;;;;;;42.03;19.13;;;-3.50;99.90;;;;;;4921932;29;20058;-87
2021/12/11 01:34:17;;;;;;;39.88;17.33;;;-4.10;99.90;;;;;;4922943;29;20063;-87
2021/12/11 01:36:43;;;;;;;40.13;18.85;;;-4.10;99.90;;;;;;4922434;29;20062;-87
2021/12/11 01:39:14;;;;;;;40.90;18.73;;;-3.80;99.90;;;;;;4922518;29;20149;-88
2021/12/11 01:41:42;;;;;;;46.90;18.75;;;-3.60;99.90;;;;;;4922235;29;20110;-87
2021/12/11 01:44:16;;;;;;;39.05;18.48;;;-3.80;99.90;;;;;;4920664;29;20047;-87
2021/12/11 01:46:43;;;;;;;47.05;20.10;;;-4.10;99.90;;;;;;4920891;29;20055;-87
2021/12/11 01:49:13;;;;;;;44.45;20.08;;;-4.00;99.90;;;;;;4920773;29;20047;-87
2021/12/11 01:51:53;;;;;;;39.63;18.55;;;-4.20;99.90;;;;;;4921034;29;20195;-87
2021/12/11 01:54:30;;;;;;;35.58;17.30;;;-4.20;99.90;;;;;;4937252;29;20063;-88
2021/12/11 01:57:01;;;;;;;46.30;20.45;;;-4.20;99.90;;;;;;4924747;29;20047;-86
2021/12/11 01:59:32;;;;;;;44.33;19.08;;;-4.00;99.90;;;;;;4937894;28;20058;-86
2021/12/11 02:02:19;;;;;;;47.08;21.08;;;-3.60;99.90;;;;;;4938680;28;20114;-86
2021/12/11 02:04:47;;;;;;;50.25;20.55;;;-4.10;99.90;;;;;;4924027;29;20189;-87
2021/12/11 02:07:21;;;;;;;44.83;21.25;;;-4.20;99.90;;;;;;4956561;28;20062;-86
2021/12/11 02:09:56;;;;;;;48.47;19.80;;;-4.20;99.90;;;;;;4925210;29;20070;-87
2021/12/11 02:12:29;;;;;;;41.15;20.05;;;-4.20;99.90;;;;;;4924890;28;20514;-87
2021/12/11 02:14:59;;;;;;;43.97;20.50;;;-3.70;99.90;;;;;;4928365;28;20059;-86
2021/12/11 02:17:53;;;;;;;46.35;20.70;;;-3.90;99.90;;;;;;4927666;29;20051;-86
2021/12/11 02:20:28;;;;;;;52.13;21.20;;;-3.40;99.90;;;;;;4928498;28;20051;-86
2021/12/11 02:22:54;;;;;;;49.47;20.85;;;-3.90;99.90;;;;;;4945487;28;20050;-86
2021/12/11 02:25:29;;;;;;;48.17;19.88;;;-4.20;99.90;;;;;;4945905;28;20102;-86
2021/12/11 02:28:08;;;;;;;50.08;20.60;;;-4.60;99.90;;;;;;4965060;28;20058;-86
2021/12/11 02:30:45;;;;;;;41.42;18.70;;;-4.00;99.90;;;;;;4957314;28;20030;-86
2021/12/11 02:33:27;;;;;;;43.38;20.02;;;-3.90;99.90;;;;;;4957660;28;20536;-86
2021/12/11 02:36:10;;;;;;;50.00;19.20;;;-4.70;99.90;;;;;;4957390;28;20027;-86
2021/12/11 02:38:45;;;;;;;45.78;19.98;;;-4.30;99.90;;;;;;4958476;28;20042;-86
2021/12/11 02:41:19;;;;;;;50.70;20.35;;;-4.10;99.90;;;;;;4974629;28;20058;-86
2021/12/11 02:44:02;;;;;;;39.08;18.88;;;-4.10;99.90;;;;;;4948064;28;20054;-86
2021/12/11 02:46:44;;;;;;;44.65;19.90;;;-3.60;99.90;;;;;;4943115;28;20204;-86
2021/12/11 02:49:18;;;;;;;48.58;20.75;;;-4.20;99.90;;;;;;4942366;28;20050;-86
2021/12/11 02:52:06;;;;;;;39.42;18.85;;;-3.70;99.90;;;;;;4942210;28;20503;-86
2021/12/11 02:54:47;;;;;;;42.33;19.60;;;-4.20;99.90;;;;;;4941146;28;20047;-86
2021/12/11 02:57:21;;;;;;;46.65;19.63;;;-4.10;99.90;;;;;;4942846;28;20059;-86
2021/12/11 02:59:48;;;;;;;41.95;18.35;;;-4.30;99.90;;;;;;4943966;28;20105;-86
2021/12/11 03:02:26;;;;;;;44.50;18.90;;;-4.10;99.90;;;;;;4959153;28;20074;-86
2021/12/11 03:05:05;;;;;;;46.35;21.38;;;-3.70;99.90;;;;;;4943940;28;20051;-86
2021/12/11 03:07:36;;;;;;;46.22;20.35;;;-3.90;99.90;;;;;;4945065;28;20051;-86
2021/12/11 03:10:11;;;;;;;49.13;20.75;;;-4.10;99.90;;;;;;4959456;28;20050;-86
2021/12/11 03:12:38;;;;;;;47.05;20.40;;;-3.70;99.90;;;;;;4960662;28;20055;-86
2021/12/11 03:15:06;;;;;;;44.10;20.83;;;-4.00;99.90;;;;;;4949990;28;20043;-86
2021/12/11 03:17:32;;;;;;;47.00;20.42;;;-3.30;99.90;;;;;;4943591;28;20055;-86
2021/12/11 03:19:58;;;;;;;50.70;21.48;;;-3.60;99.90;;;;;;4942867;28;20414;-86
2021/12/11 03:22:29;;;;;;;;;;;-3.10;99.90;;;;;;4959433;28;20490;-86
2021/12/11 03:24:56;;;;;;;44.53;18.63;;;-3.30;99.90;;;;;;4959280;28;20070;-86
2021/12/11 03:27:21;;;;;;;49.10;21.02;;;-4.20;99.90;;;;;;4942131;28;20129;-86
2021/12/11 03:29:47;;;;;;;41.70;19.75;;;-4.00;99.90;;;;;;4938971;29;20094;-86
2021/12/11 03:32:14;;;;;;;42.88;19.83;;;-4.00;99.90;;;;;;4923976;29;20039;-86
2021/12/11 03:34:41;;;;;;;44.42;20.17;;;-4.00;99.90;;;;;;4956418;29;20055;-86
2021/12/11 03:37:11;;;;;;;48.95;21.05;;;-4.00;99.90;;;;;;4956320;28;20078;-86
2021/12/11 03:39:40;;;;;;;42.95;21.13;;;-3.10;99.90;;;;;;4924284;29;20183;-86
2021/12/11 03:42:11;;;;;;;45.20;20.58;;;-4.30;99.90;;;;;;4924091;29;20133;-86
2021/12/11 03:44:39;;;;;;;45.95;18.35;;;-3.50;99.90;;;;;;4924251;29;20170;-86
2021/12/11 03:47:17;;;;;;;44.05;18.50;;;-4.30;99.90;;;;;;4924586;29;20058;-86
2021/12/11 03:49:43;;;;;;;41.78;18.38;;;-4.30;99.90;;;;;;4953103;28;20054;-86
2021/12/11 03:52:11;;;;;;;47.92;20.45;;;-3.60;99.90;;;;;;4953513;29;20582;-86
2021/12/11 03:54:41;;;;;;;49.00;20.13;;;-3.60;99.90;;;;;;4921181;29;20059;-86
2021/12/11 03:57:09;;;;;;;47.03;21.60;;;-4.20;99.90;;;;;;4923677;29;20106;-86
2021/12/11 03:59:35;;;;;;;52.72;21.35;;;-3.60;99.90;;;;;;4925013;29;20070;-86
2021/12/11 04:02:07;;;;;;;56.22;23.83;;;-3.90;99.90;;;;;;4924460;29;20043;-87
2021/12/11 04:04:55;;;;;;;54.05;23.75;;;-3.90;99.90;;;;;;4924469;29;20186;-86
2021/12/11 04:07:25;;;;;;;51.22;22.48;;;-3.90;99.90;;;;;;4938047;29;20059;-86
2021/12/11 04:09:51;;;;;;;56.90;22.55;;;-3.10;99.90;;;;;;4937473;29;20971;-86
2021/12/11 04:12:19;;;;;;;57.45;24.30;;;-3.70;99.90;;;;;;4921666;29;20083;-86
2021/12/11 04:14:48;;;;;;;55.75;23.60;;;-3.70;99.90;;;;;;4925400;28;20082;-86
2021/12/11 04:17:22;;;;;;;66.32;23.90;;;-3.60;99.90;;;;;;4921672;29;20058;-86
2021/12/11 04:19:54;;;;;;;51.03;22.30;;;-4.00;99.90;;;;;;4919676;29;20061;-86
2021/12/11 04:22:21;;;;;;;46.88;21.90;;;-3.90;99.90;;;;;;4934904;29;20066;-86
2021/12/11 04:24:47;;;;;;;52.58;21.98;;;-3.50;99.90;;;;;;4935307;29;20051;-86
2021/12/11 04:27:17;;;;;;;54.75;22.75;;;-4.10;99.90;;;;;;4920171;29;20083;-87
2021/12/11 04:29:47;;;;;;;51.40;22.73;;;-4.00;99.90;;;;;;4924335;29;20115;-86
2021/12/11 04:32:13;;;;;;;55.33;23.70;;;-3.60;99.90;;;;;;4927292;29;20047;-86
2021/12/11 04:34:39;;;;;;;55.78;22.45;;;-4.20;99.90;;;;;;4925213;29;20055;-86
2021/12/11 04:37:16;;;;;;;55.90;23.85;;;-3.80;99.90;;;;;;4945179;28;20050;-86
2021/12/11 04:39:46;;;;;;;51.00;21.60;;;-4.00;99.90;;;;;;4945176;28;20062;-86
2021/12/11 04:42:24;;;;;;;58.70;22.10;;;-4.00;99.90;;;;;;4961480;28;20121;-86
2021/12/11 04:44:50;;;;;;;52.78;23.30;;;-3.60;99.90;;;;;;4959470;28;20055;-86
2021/12/11 04:47:32;;;;;;;61.95;24.52;;;-3.70;99.90;;;;;;4960844;28;20046;-86
2021/12/11 04:50:05;;;;;;;50.40;22.98;;;-3.90;99.90;;;;;;4941537;28;20135;-86
2021/12/11 04:52:36;;;;;;;57.53;21.98;;;-3.10;99.90;;;;;;4953853;28;20055;-86
2021/12/11 05:10:54;;;;;;;66.47;29.60;;;-4.30;99.90;;;;;;4960402;28;20054;-86
2021/12/11 05:13:22;;;;;;;67.68;25.73;;;-3.30;99.90;;;;;;4943969;28;20050;-87
2021/12/11 05:15:49;;;;;;;57.10;23.70;;;-4.20;99.90;;;;;;4949853;28;20054;-86
2021/12/11 05:18:19;;;;;;;64.47;27.00;;;-3.60;99.90;;;;;;4951070;28;20062;-86
2021/12/11 05:20:47;;;;;;;56.97;24.38;;;-3.90;99.90;;;;;;4963961;29;20067;-86
2021/12/11 05:23:16;;;;;;;62.97;24.10;;;-4.20;99.90;;;;;;4963524;28;20102;-86
2021/12/11 05:25:43;;;;;;;66.85;24.77;;;-4.20;99.90;;;;;;4962541;29;20047;-86
2021/12/11 05:28:09;;;;;;;58.88;24.55;;;-4.50;99.90;;;;;;4962540;28;20051;-86
2021/12/11 05:30:39;;;;;;;56.22;23.63;;;-4.50;99.90;;;;;;4962819;28;20051;-86
2021/12/11 05:33:05;;;;;;;55.05;24.20;;;-4.30;99.90;;;;;;4962283;28;20122;-87
2021/12/11 05:35:35;;;;;;;52.42;23.73;;;-4.20;99.90;;;;;;4980154;28;20047;-86
2021/12/11 05:38:03;;;;;;;51.08;23.55;;;-4.20;99.90;;;;;;4962319;28;20114;-86
2021/12/11 05:40:30;;;;;;;56.08;23.48;;;-4.30;99.90;;;;;;4963014;28;20138;-87
2021/12/11 05:42:56;;;;;;;50.00;20.98;;;-4.30;99.90;;;;;;4962043;28;20057;-87
2021/12/11 05:45:23;;;;;;;49.08;22.83;;;-3.90;99.90;;;;;;4963728;28;20040;-87
2021/12/11 05:47:49;;;;;;;54.90;22.90;;;-4.20;99.90;;;;;;4963432;28;20418;-86
2021/12/11 05:50:17;;;;;;;;;;;-4.30;99.90;;;;;;4965261;29;20051;-86
2021/12/11 05:52:44;;;;;;;52.80;23.85;;;-4.20;99.90;;;;;;4949451;29;19930;-86
2021/12/11 05:55:14;;;;;;;56.40;22.85;;;-3.80;99.90;;;;;;4965384;28;20053;-87
2021/12/11 05:57:41;;;;;;;54.55;23.80;;;-4.30;99.90;;;;;;4965578;28;20070;-86
2021/12/11 06:00:10;;;;;;;57.92;24.23;;;-4.40;99.90;;;;;;4965142;28;20051;-87
2021/12/11 06:02:36;;;;;;;55.22;23.38;;;-4.30;99.90;;;;;;4963962;28;20482;-86
2021/12/11 06:05:03;;;;;;;54.05;23.83;;;-4.40;99.90;;;;;;4960597;28;20058;-86
2021/12/11 06:07:30;;;;;;;60.85;23.25;;;-4.20;99.90;;;;;;4958745;28;20105;-87
2021/12/11 06:10:07;;;;;;;52.33;22.48;;;-3.90;99.90;;;;;;4960021;28;20052;-86
2021/12/11 06:12:33;;;;;;;59.03;23.13;;;-3.60;99.90;;;;;;4946874;29;20055;-86
2021/12/11 06:14:59;;;;;;;52.97;23.15;;;-4.40;99.90;;;;;;4963258;28;20082;-86
2021/12/11 06:17:28;;;;;;;60.65;23.80;;;-4.20;99.90;;;;;;4947291;29;20055;-86
2021/12/11 06:19:55;;;;;;;52.55;23.25;;;-4.30;99.90;;;;;;4963909;28;20058;-86
2021/12/11 06:22:24;;;;;;;53.88;21.63;;;-4.40;99.90;;;;;;4946369;28;20136;-87
2021/12/11 06:24:52;;;;;;;60.85;23.20;;;-4.50;99.90;;;;;;4943555;28;20149;-86
2021/12/11 06:27:18;;;;;;;59.33;23.00;;;-3.90;99.90;;;;;;4946866;28;20105;-86
2021/12/11 06:29:44;;;;;;;52.42;24.40;;;-4.40;99.90;;;;;;4945927;28;20043;-87
2021/12/11 06:32:10;;;;;;;58.25;24.42;;;-4.30;99.90;;;;;;4947459;28;20043;-86
2021/12/11 06:34:36;;;;;;;;;;;-3.70;99.90;;;;;;4962622;28;20122;-86
2021/12/11 06:37:05;;;;;;;50.50;21.95;;;-4.20;99.90;;;;;;4946765;28;20013;-86
2021/12/11 06:39:31;;;;;;;59.38;22.83;;;-4.20;99.90;;;;;;4947382;28;20055;-86
2021/12/11 06:42:00;;;;;;;60.15;26.25;;;-4.20;99.90;;;;;;4947533;28;20050;-86
2021/12/11 06:44:28;;;;;;;58.65;24.88;;;-4.10;99.90;;;;;;4943642;28;20133;-87
2021/12/11 06:46:58;;;;;;;64.13;24.15;;;-3.70;99.90;;;;;;4943533;28;20230;-86
2021/12/11 06:49:27;;;;;;;58.42;23.95;;;-4.30;99.90;;;;;;4943519;28;20197;-86
2021/12/11 06:51:53;;;;;;;61.35;26.27;;;-4.20;99.90;;;;;;4960288;28;20054;-86
2021/12/11 06:54:18;;;;;;;59.53;24.58;;;-4.20;99.90;;;;;;4949013;28;20130;-86
2021/12/11 06:57:05;;;;;;;62.45;23.25;;;-4.30;99.90;;;;;;4949475;28;20121;-86
2021/12/11 06:59:31;;;;;;;61.60;25.67;;;-4.10;99.90;;;;;;4950821;28;20047;-86
2021/12/11 07:01:57;;;;;;;63.00;24.75;;;-4.00;99.90;;;;;;4949449;28;20525;-87
2021/12/11 07:04:22;;;;;;;62.42;26.40;;;-4.00;99.90;;;;;;4954533;28;20046;-87
2021/12/11 07:06:51;;;;;;;58.88;25.83;;;-3.30;99.90;;;;;;4969843;28;20046;-86
2021/12/11 07:09:23;;;;;;;55.60;23.65;;;-4.00;99.90;;;;;;4950008;28;20403;-86
2021/12/11 07:11:52;;;;;;;67.65;27.65;;;-3.80;99.90;;;;;;4948954;28;20094;-87
2021/12/11 07:14:20;;;;;;;62.60;24.30;;;-3.90;99.90;;;;;;4945309;28;20055;-87
2021/12/11 07:16:47;;;;;;;66.90;27.25;;;-3.70;99.90;;;;;;4943818;28;20061;-87
2021/12/11 07:19:14;;;;;;;70.70;27.95;;;-3.80;99.90;;;;;;4948239;28;20061;-87
2021/12/11 07:21:40;;;;;;;69.72;25.50;;;-3.90;99.90;;;;;;4964913;28;20082;-87
2021/12/11 07:24:14;;;;;;;78.03;30.33;;;-3.80;99.90;;;;;;4950759;28;20185;-87
2021/12/11 07:26:40;;;;;;;74.05;28.92;;;-3.80;99.90;;;;;;4961016;28;20038;-88
2021/12/11 07:29:08;;;;;;;;;;;-3.40;99.90;;;;;;4961084;28;20082;-87
2021/12/11 07:31:35;;;;;;;75.43;27.92;;;-3.20;99.90;;;;;;4953171;28;19933;-87
2021/12/11 07:34:01;;;;;;;64.80;29.08;;;-3.60;99.90;;;;;;4946689;28;20062;-87
2021/12/11 07:36:28;;;;;;;65.38;28.70;;;-3.70;99.90;;;;;;4946599;28;20065;-87
2021/12/11 07:38:55;;;;;;;69.18;29.67;;;-3.70;99.90;;;;;;4960945;28;20513;-87
2021/12/11 07:41:22;;;;;;;69.90;29.05;;;-3.20;99.90;;;;;;4944279;28;20054;-87
2021/12/11 07:43:49;;;;;;;68.35;29.02;;;-3.30;99.90;;;;;;4945809;28;20055;-87
2021/12/11 07:46:20;;;;;;;76.53;30.08;;;-2.70;99.90;;;;;;4945282;28;20085;-87
2021/12/11 07:48:47;;;;;;;68.82;30.13;;;-3.70;99.90;;;;;;4946279;28;20058;-87
2021/12/11 07:51:13;;;;;;;77.80;30.55;;;-3.50;99.90;;;;;;4963285;28;20054;-88
2021/12/11 07:53:40;;;;;;;76.63;28.75;;;-3.20;99.90;;;;;;4929197;28;20565;-88
2021/12/11 07:56:09;;;;;;;74.40;30.75;;;-3.30;99.90;;;;;;4944983;28;20490;-87
2021/12/11 07:58:35;;;;;;;79.28;30.70;;;-3.20;99.90;;;;;;4951192;28;20197;-87
2021/12/11 08:01:08;;;;;;;70.57;29.75;;;-3.50;99.90;;;;;;4948081;28;20050;-87
2021/12/11 08:03:35;;;;;;;73.60;30.60;;;-3.40;99.90;;;;;;4946965;28;20054;-88
2021/12/11 08:06:02;;;;;;;69.80;29.00;;;-2.90;99.90;;;;;;4964519;28;20106;-88
2021/12/11 08:08:28;;;;;;;74.82;31.35;;;-3.00;99.90;;;;;;4946432;28;20051;-88
2021/12/11 08:10:59;;;;;;;84.65;32.58;;;-3.20;99.90;;;;;;4946995;28;20046;-88
2021/12/11 08:13:30;;;;;;;79.95;31.30;;;-3.00;99.90;;;;;;4947161;28;20062;-88
2021/12/11 08:16:01;;;;;;;81.93;31.10;;;-2.90;99.90;;;;;;4945129;28;20043;-88
2021/12/11 08:18:41;;;;;;;82.32;34.47;;;-3.00;99.90;;;;;;4946206;28;20062;-88
2021/12/11 08:21:09;;;;;;;77.65;32.78;;;-3.60;99.90;;;;;;4940436;28;20063;-88
2021/12/11 08:23:43;;;;;;;93.13;36.38;;;-3.10;99.90;;;;;;4940752;28;20059;-88
2021/12/11 08:26:18;;;;;;;97.07;36.92;;;-3.60;99.90;;;;;;4926413;29;20138;-87
2021/12/11 08:28:44;;;;;;;88.18;34.83;;;-3.20;99.90;;;;;;4926351;29;20054;-88
2021/12/11 08:34:02;;;;;;;108.47;43.15;;;-2.60;99.90;;;;;;4968114;28;20137;-88
2021/12/11 08:36:28;;;;;;;85.88;34.42;;;-2.40;99.90;;;;;;4960016;28;20058;-88
2021/12/11 08:38:59;;;;;;;92.68;35.53;;;-2.60;99.90;;;;;;4960841;28;20031;-88
2021/12/11 08:41:29;;;;;;;89.85;35.03;;;-2.80;99.90;;;;;;4945718;28;20161;-88
2021/12/11 08:44:08;;;;;;;86.90;34.95;;;-2.50;99.90;;;;;;4942902;28;20078;-88
2021/12/11 08:46:37;;;;;;;81.80;35.35;;;-2.50;99.90;;;;;;4947936;28;20050;-87
2021/12/11 08:49:07;;;;;;;91.78;35.97;;;-2.60;99.90;;;;;;4958252;28;20110;-87
2021/12/11 08:51:38;;;;;;;94.57;39.47;;;-2.10;99.90;;;;;;4951352;28;20050;-87
2021/12/11 08:54:05;;;;;;;103.53;37.38;;;-2.20;99.90;;;;;;4963730;28;20072;-87
2021/12/11 08:56:34;;;;;;;92.93;38.40;;;-2.10;99.90;;;;;;4964220;28;20118;-87
2021/12/11 08:59:00;;;;;;;105.10;37.63;;;-2.00;99.90;;;;;;4929904;29;20055;-87
2021/12/11 09:01:40;;;;;;;97.70;37.20;;;-1.80;99.90;;;;;;4924439;29;20677;-87
2021/12/11 09:04:36;;;;;;;104.10;39.03;;;-1.90;99.90;;;;;;4923280;29;20425;-88
2021/12/11 09:07:26;;;;;;;91.68;35.55;;;-1.80;99.90;;;;;;4923420;29;20054;-87
2021/12/11 09:10:21;;;;;;;112.60;40.90;;;-2.40;99.90;;;;;;4924689;29;20054;-87
2021/12/11 09:12:55;;;;;;;108.60;39.65;;;-1.80;99.90;;;;;;4922120;29;20250;-87
2021/12/11 09:15:36;;;;;;;112.72;39.85;;;-1.50;99.90;;;;;;4926132;29;20051;-87
2021/12/11 09:18:10;;;;;;;98.97;38.25;;;-1.60;99.90;;;;;;4926877;29;20057;-88
2021/12/11 09:20:51;;;;;;;113.80;45.10;;;-1.60;99.90;;;;;;4926635;29;20117;-87
2021/12/11 09:23:28;;;;;;;115.50;42.20;;;-1.20;99.90;;;;;;4926046;28;20150;-87
2021/12/11 09:26:06;;;;;;;124.75;42.97;;;-1.30;99.90;;;;;;4940742;28;20054;-87
2021/12/11 09:28:38;;;;;;;120.90;43.95;;;-1.20;99.90;;;;;;4954931;28;20121;-86
2021/12/11 09:31:22;;;;;;;130.68;45.58;;;-0.90;99.90;;;;;;4942633;28;20057;-87
2021/12/11 09:34:03;;;;;;;137.57;48.55;;;-1.00;99.90;;;;;;4942610;28;20066;-87
2021/12/11 09:36:34;;;;;;;135.20;48.60;;;-1.00;99.90;;;;;;4942212;28;20105;-87
2021/12/11 09:39:12;;;;;;;135.88;48.72;;;-0.80;99.90;;;;;;4926997;29;20114;-87
2021/12/11 09:41:41;;;;;;;124.03;47.80;;;-0.90;99.90;;;;;;4929503;29;20043;-87
2021/12/11 09:44:15;;;;;;;148.02;49.83;;;-0.90;99.90;;;;;;4923303;29;20055;-88
2021/12/11 09:46:46;;;;;;;;;;;-0.80;99.90;;;;;;4938919;29;20525;-87
2021/12/11 09:49:19;;;;;;;156.00;53.15;;;-0.80;99.90;;;;;;4938739;29;20068;-87
2021/12/11 09:51:48;;;;;;;151.82;49.72;;;-0.70;99.90;;;;;;4957516;28;20178;-87
2021/12/11 09:54:35;;;;;;;144.90;54.25;;;-0.60;99.90;;;;;;4940787;28;20134;-88
2021/12/11 10:05:54;;;;;;;;;;;;;;;;;;;;;
2021/12/11 10:13:18;;;;;;;170.32;56.03;;;-0.10;99.90;;;;;;4760955;30;20068;-84
2021/12/11 10:16:32;;;;;;;184.95;57.50;;;-0.30;99.90;;;;;;4737583;30;20108;-87
2021/12/11 10:19:45;;;;;;;;;;;;;;;;;;;;;
2021/12/11 10:22:43;;;;;;;174.98;55.65;;;0.10;99.90;;;;;;4800848;29;20510;-86
2021/12/11 10:26:16;;;;;;;170.93;53.95;;;0.60;99.90;;;;;;4823521;29;20069;-86
2021/12/11 10:29:11;;;;;;;164.15;54.20;;;0.30;99.90;;;;;;4846914;29;20114;-86
2021/12/11 10:32:22;;;;;;;162.15;55.42;;;0.80;99.90;;;;;;4840460;29;20128;-87
2021/12/11 21:48:33;;;;;;;;;;;;;;;;;;;;;
2021/12/11 23:21:40;;;;;;;116.53;38.03;;;3.60;99.90;;;;;;4894080;29;20152;-88
2021/12/11 23:24:42;;;;;;;139.05;44.47;;;3.70;99.90;;;;;;4864009;29;20184;-88
2021/12/11 23:35:13;;;;;;;;;;;;;;;;;;;;;
2021/12/11 23:53:48;;;;;;;123.00;39.60;;;3.20;99.90;;;;;;4900938;29;20542;-88
